ソチ の空港の天気 - METARとTAF

ソチ空港 ( URSS / AER ) - ロシア ソチ
飛行場実況気象(Metar)
観測時間07/17 11:00 MSK (07/17 08:00 UTC)
風向・風速西 4m/s
視程10km以上
天気現象
なし
気温25℃
湿度57%
気圧1007hPa
METARURSS 170800Z 26004MPS 9999 NSC 25/16 Q1007 WS ALL RWY R02/010070 R06/010070 NOSIG RMK R06/28005MPS QFE754
過去の天気等 Google飛行場航空写真 Wunderground天気予報

過去48時間のMETAR

飛行場予報(TAF)
発表時間: 7/17 07:57 MSK (7/17 04:57 UTC)
予報対象時間: 17日9時 MSK ~ 18日9時 MSK
風向・風速西南西 5m/s
視程10km以上
全天の4割程度の雲 雲底高度 3050m
17日9時 MSK ~ 17日12時 MSK に一時的に
風向・風速不定 1m/s
17日20時 MSK ~ 17日21時 MSK に徐々に
風向・風速南東 5m/s 瞬間風速 10m/s
全天の4割程度の積乱雲 雲底高度 1220m
全天の8割程度の雲 雲底高度 3050m
18日3時 MSK ~ 18日9時 MSK に一時的に
風向・風速不定 7m/s
天気現象弱い雷雨
TAF URSS 170457Z 1706/1806 24005MPS 9999 SCT100
TEMPO 1706/1709 VRB01MPS
BECMG 1717/1718 14005G10MPS SCT040CB BKN100
TEMPO 1800/1806 VRB07MPS -TSRA